You are not logged in, Click here to log in
臺灣桃園國際機場TPE / RCTP 桃園市大園區航站南路9號
ICAO: RCTP Country: 桃園市大園區航站南路9號
Latitude: 25.0797 Longitude: 121.234
Total Arrivals: 1592 Total Departures: 1631
Latest Arrival: CI300 (RCKH-RCTP) Nick. Liu Latest Departure: BR851 (RCTP-VHHH)CHU. CHUHAO
Scenery: http://www.taoyuan-airport.com/UserFiles/Image/e2map2.gif
METAR : RCTP 261200Z 05017KT 4500 BR SCT004 BKN006 BKN010 19/18 Q1020 NOSIG RMK A3014

臺灣桃園國際機場TPE

You are accessing this site from IP address 34.239.151.158. Virtual Airline. CMS by phpVMS.Website designed by Zumeweb and edited by Theo Bearman.
There is 0 User(s) Online: | and 4 Guest(s) Online.
All information on this site is for fight simulation purposes only. This site is for flight logging for pilots of Virtual Airline&模擬飛行論壇 FlySim only.